Fort Miller, New York
Current Conditions -  °F | °C
As of 1:53 PM on Monday 22 Dec 2014 (Local Time) from KGFL Reporting Station
Overcast Overcast  
Wind Chill: 29°   Ceiling: 4200
Heat Index: 33°   Visibility: 9mi
Dew Point: 26°   Wind: 5mph
Humidity: 75%   Direction: 70°ENE
Pressure: 30.28"   Gusts: NA
Location:  43.23°N, 73.5588°W
Report Text: KGFL 221853Z AUTO 07004KT 9SM OVC042 01/M03 A3028 RMK AO2 SLP262 T00061033
Loading
Personal Weather Stations






























Interactive Weather Map New forecast layout! Learn more

10-Day Weather Forecast

Advertisements
Track Severe Weather on mobile